Rumney, New Hampshire
Current Conditions -  °F | °C
As of 5:55 PM on Thursday 18 Dec 2014 (Local Time) from K1P1 Reporting Station
Overcast Overcast  
Wind Chill:   Ceiling: 2100
Heat Index:   Visibility: 10mi
Dew Point: -1°   Wind: 0mph
Humidity: 91%   Direction: NA
Pressure: 29.82"   Gusts: NA
Location:  43.81°N, 71.81°W
Report Text: K1P1 182255Z AUTO 00000KT 10SM OVC021 01/M01 A2982 RMK AO2 T00051008
Loading
Personal Weather Stations






























Interactive Weather Map New forecast layout! Learn more

10-Day Weather Forecast

Advertisements
Track Severe Weather on mobile